sensor_id;sensor_type;location;lat;lon;timestamp;P1;durP1;ratioP1;P2;durP2;ratioP2
16662;SDS011;8445;51.270;9.434;2022-08-11T00:03:47;2.20;;;2.00;;
16662;SDS011;8445;51.270;9.434;2022-08-11T00:06:31;5.28;;;2.15;;
16662;SDS011;8445;51.270;9.434;2022-08-11T00:09:03;2.45;;;2.00;;
16662;SDS011;8445;51.270;9.434;2022-08-11T00:11:35;3.25;;;2.00;;
16662;SDS011;8445;51.270;9.434;2022-08-11T00:17:09;4.00;;;1.63;;
16662;SDS011;8445;51.270;9.434;2022-08-11T00:19:46;2.00;;;1.80;;
16662;SDS011;8445;51.270;9.434;2022-08-11T00:22:19;2.25;;;2.00;;
16662;SDS011;8445;51.270;9.434;2022-08-11T00:24:47;6.22;;;2.78;;
16662;SDS011;8445;51.270;9.434;2022-08-11T00:27:15;4.75;;;2.60;;
16662;SDS011;8445;51.270;9.434;2022-08-11T00:29:41;6.75;;;3.30;;
16662;SDS011;8445;51.270;9.434;2022-08-11T00:32:18;3.17;;;2.78;;
16662;SDS011;8445;51.270;9.434;2022-08-11T00:34:45;4.13;;;2.92;;
16662;SDS011;8445;51.270;9.434;2022-08-11T00:37:17;4.22;;;3.53;;
16662;SDS011;8445;51.270;9.434;2022-08-11T00:39:48;4.45;;;3.80;;
16662;SDS011;8445;51.270;9.434;2022-08-11T00:45:28;4.20;;;3.20;;
16662;SDS011;8445;51.270;9.434;2022-08-11T00:48:24;5.57;;;3.72;;
16662;SDS011;8445;51.270;9.434;2022-08-11T00:51:23;4.75;;;3.65;;
16662;SDS011;8445;51.270;9.434;2022-08-11T00:57:19;7.00;;;3.15;;
16662;SDS011;8445;51.270;9.434;2022-08-11T01:00:16;5.57;;;3.25;;
16662;SDS011;8445;51.270;9.434;2022-08-11T01:11:50;4.18;;;3.33;;
16662;SDS011;8445;51.270;9.434;2022-08-11T01:55:11;4.97;;;2.70;;
16662;SDS011;8445;51.270;9.434;2022-08-11T01:58:19;3.70;;;2.53;;
16662;SDS011;8445;51.270;9.434;2022-08-11T02:03:54;3.83;;;2.78;;
16662;SDS011;8445;51.270;9.434;2022-08-11T02:06:51;3.45;;;2.63;;
16662;SDS011;8445;51.270;9.434;2022-08-11T02:11:51;3.83;;;3.00;;
16662;SDS011;8445;51.270;9.434;2022-08-11T02:14:41;5.70;;;2.58;;
16662;SDS011;8445;51.270;9.434;2022-08-11T02:17:34;3.30;;;2.75;;
16662;SDS011;8445;51.270;9.434;2022-08-11T02:20:25;4.03;;;2.80;;
16662;SDS011;8445;51.270;9.434;2022-08-11T02:23:47;5.13;;;2.90;;
16662;SDS011;8445;51.270;9.434;2022-08-11T02:26:34;6.38;;;2.75;;
16662;SDS011;8445;51.270;9.434;2022-08-11T02:29:18;6.13;;;2.92;;
16662;SDS011;8445;51.270;9.434;2022-08-11T02:35:07;4.25;;;3.13;;
16662;SDS011;8445;51.270;9.434;2022-08-11T02:43:06;4.50;;;3.10;;
16662;SDS011;8445;51.270;9.434;2022-08-11T02:45:47;4.75;;;3.22;;
16662;SDS011;8445;51.270;9.434;2022-08-11T02:51:53;4.00;;;3.40;;
16662;SDS011;8445;51.270;9.434;2022-08-11T02:58:14;4.80;;;3.05;;
16662;SDS011;8445;51.270;9.434;2022-08-11T03:01:16;4.32;;;3.58;;
16662;SDS011;8445;51.270;9.434;2022-08-11T03:04:02;6.95;;;3.80;;
16662;SDS011;8445;51.270;9.434;2022-08-11T03:12:17;10.35;;;3.55;;
16662;SDS011;8445;51.270;9.434;2022-08-11T03:15:14;4.53;;;3.55;;
16662;SDS011;8445;51.270;9.434;2022-08-11T03:18:14;5.28;;;4.07;;
16662;SDS011;8445;51.270;9.434;2022-08-11T03:29:51;6.05;;;4.35;;
16662;SDS011;8445;51.270;9.434;2022-08-11T03:39:15;4.22;;;3.35;;
16662;SDS011;8445;51.270;9.434;2022-08-11T03:42:11;5.75;;;4.53;;
16662;SDS011;8445;51.270;9.434;2022-08-11T03:48:07;5.68;;;4.05;;
16662;SDS011;8445;51.270;9.434;2022-08-11T04:08:46;5.95;;;3.45;;
16662;SDS011;8445;51.270;9.434;2022-08-11T04:18:27;4.38;;;3.97;;
16662;SDS011;8445;51.270;9.434;2022-08-11T04:24:44;6.07;;;3.83;;
16662;SDS011;8445;51.270;9.434;2022-08-11T04:30:29;4.28;;;3.90;;
16662;SDS011;8445;51.270;9.434;2022-08-11T04:36:09;5.80;;;4.20;;
16662;SDS011;8445;51.270;9.434;2022-08-11T04:56:01;4.95;;;4.13;;
16662;SDS011;8445;51.270;9.434;2022-08-11T05:05:28;3.97;;;3.28;;
16662;SDS011;8445;51.270;9.434;2022-08-11T05:17:24;5.45;;;3.30;;
16662;SDS011;8445;51.270;9.434;2022-08-11T05:20:19;3.45;;;2.85;;
16662;SDS011;8445;51.270;9.434;2022-08-11T05:23:08;4.55;;;3.42;;
16662;SDS011;8445;51.270;9.434;2022-08-11T05:25:56;5.22;;;3.40;;
16662;SDS011;8445;51.270;9.434;2022-08-11T05:28:53;9.13;;;3.60;;
16662;SDS011;8445;51.270;9.434;2022-08-11T05:31:44;3.72;;;3.40;;
16662;SDS011;8445;51.270;9.434;2022-08-11T05:34:50;7.28;;;3.67;;
16662;SDS011;8445;51.270;9.434;2022-08-11T05:40:10;8.82;;;3.40;;
16662;SDS011;8445;51.270;9.434;2022-08-11T05:42:58;10.05;;;3.70;;
16662;SDS011;8445;51.270;9.434;2022-08-11T05:45:58;5.35;;;3.55;;
16662;SDS011;8445;51.270;9.434;2022-08-11T05:48:49;5.63;;;3.40;;
16662;SDS011;8445;51.270;9.434;2022-08-11T05:51:36;3.70;;;3.22;;
16662;SDS011;8445;51.270;9.434;2022-08-11T05:54:26;5.40;;;3.65;;
16662;SDS011;8445;51.270;9.434;2022-08-11T05:57:19;4.93;;;3.40;;
16662;SDS011;8445;51.270;9.434;2022-08-11T06:00:06;6.40;;;3.15;;
16662;SDS011;8445;51.270;9.434;2022-08-11T06:02:45;6.00;;;3.63;;
16662;SDS011;8445;51.270;9.434;2022-08-11T06:05:23;4.53;;;3.28;;
16662;SDS011;8445;51.270;9.434;2022-08-11T06:08:01;5.22;;;3.63;;
16662;SDS011;8445;51.270;9.434;2022-08-11T06:10:35;3.85;;;3.22;;
16662;SDS011;8445;51.270;9.434;2022-08-11T06:13:05;8.30;;;3.70;;
16662;SDS011;8445;51.270;9.434;2022-08-11T06:15:33;4.78;;;3.08;;
16662;SDS011;8445;51.270;9.434;2022-08-11T06:18:11;5.20;;;3.13;;
16662;SDS011;8445;51.270;9.434;2022-08-11T06:20:46;4.40;;;3.40;;
16662;SDS011;8445;51.270;9.434;2022-08-11T06:23:21;4.00;;;3.25;;
16662;SDS011;8445;51.270;9.434;2022-08-11T06:25:52;7.65;;;3.00;;
16662;SDS011;8445;51.270;9.434;2022-08-11T06:28:18;6.18;;;2.97;;
16662;SDS011;8445;51.270;9.434;2022-08-11T06:30:57;7.32;;;3.35;;
16662;SDS011;8445;51.270;9.434;2022-08-11T06:33:36;7.97;;;3.25;;
16662;SDS011;8445;51.270;9.434;2022-08-11T06:36:50;3.80;;;3.08;;
16662;SDS011;8445;51.270;9.434;2022-08-11T06:42:30;7.70;;;2.70;;
16662;SDS011;8445;51.270;9.434;2022-08-11T06:47:59;8.50;;;2.95;;
16662;SDS011;8445;51.270;9.434;2022-08-11T06:50:27;6.35;;;3.33;;
16662;SDS011;8445;51.270;9.434;2022-08-11T06:53:17;9.30;;;3.28;;
16662;SDS011;8445;51.270;9.434;2022-08-11T06:55:45;6.30;;;2.60;;
16662;SDS011;8445;51.270;9.434;2022-08-11T06:58:34;5.40;;;3.50;;
16662;SDS011;8445;51.270;9.434;2022-08-11T07:01:35;4.88;;;3.00;;
16662;SDS011;8445;51.270;9.434;2022-08-11T07:04:23;7.63;;;2.78;;
16662;SDS011;8445;51.270;9.434;2022-08-11T07:10:51;6.28;;;2.63;;
16662;SDS011;8445;51.270;9.434;2022-08-11T07:14:17;7.68;;;2.80;;
16662;SDS011;8445;51.270;9.434;2022-08-11T07:17:13;5.18;;;2.97;;
16662;SDS011;8445;51.270;9.434;2022-08-11T07:19:54;2.85;;;2.60;;
16662;SDS011;8445;51.270;9.434;2022-08-11T07:22:52;7.53;;;2.70;;
16662;SDS011;8445;51.270;9.434;2022-08-11T07:25:43;3.97;;;2.38;;
16662;SDS011;8445;51.270;9.434;2022-08-11T07:28:36;5.07;;;2.33;;
16662;SDS011;8445;51.270;9.434;2022-08-11T07:34:39;5.50;;;2.30;;
16662;SDS011;8445;51.270;9.434;2022-08-11T07:37:19;6.55;;;2.40;;
16662;SDS011;8445;51.270;9.434;2022-08-11T07:40:00;6.05;;;2.25;;
16662;SDS011;8445;51.270;9.434;2022-08-11T07:42:31;6.78;;;2.03;;
16662;SDS011;8445;51.270;9.434;2022-08-11T07:45:05;7.20;;;2.22;;
16662;SDS011;8445;51.270;9.434;2022-08-11T07:47:51;7.53;;;2.20;;
16662;SDS011;8445;51.270;9.434;2022-08-11T07:50:39;3.25;;;2.38;;
16662;SDS011;8445;51.270;9.434;2022-08-11T07:53:27;6.85;;;2.08;;
16662;SDS011;8445;51.270;9.434;2022-08-11T07:55:56;5.85;;;2.08;;
16662;SDS011;8445;51.270;9.434;2022-08-11T07:58:25;7.25;;;2.40;;
16662;SDS011;8445;51.270;9.434;2022-08-11T08:01:17;4.95;;;2.00;;
16662;SDS011;8445;51.270;9.434;2022-08-11T08:04:06;7.78;;;2.20;;
16662;SDS011;8445;51.270;9.434;2022-08-11T08:06:55;4.78;;;2.10;;
16662;SDS011;8445;51.270;9.434;2022-08-11T08:09:42;3.15;;;2.30;;
16662;SDS011;8445;51.270;9.434;2022-08-11T08:12:27;4.63;;;1.85;;
16662;SDS011;8445;51.270;9.434;2022-08-11T08:15:14;8.93;;;2.03;;
16662;SDS011;8445;51.270;9.434;2022-08-11T08:18:02;3.83;;;2.00;;
16662;SDS011;8445;51.270;9.434;2022-08-11T08:20:39;4.75;;;2.13;;
16662;SDS011;8445;51.270;9.434;2022-08-11T08:23:11;4.55;;;2.20;;
16662;SDS011;8445;51.270;9.434;2022-08-11T08:25:49;3.33;;;2.58;;
16662;SDS011;8445;51.270;9.434;2022-08-11T08:28:16;9.25;;;2.00;;
16662;SDS011;8445;51.270;9.434;2022-08-11T08:30:49;4.85;;;1.88;;
16662;SDS011;8445;51.270;9.434;2022-08-11T08:35:55;3.97;;;2.47;;
16662;SDS011;8445;51.270;9.434;2022-08-11T08:38:41;3.83;;;1.92;;
16662;SDS011;8445;51.270;9.434;2022-08-11T08:41:26;6.90;;;2.22;;
16662;SDS011;8445;51.270;9.434;2022-08-11T08:44:00;3.00;;;2.70;;
16662;SDS011;8445;51.270;9.434;2022-08-11T08:46:34;6.53;;;2.80;;
16662;SDS011;8445;51.270;9.434;2022-08-11T08:49:07;4.68;;;2.38;;
16662;SDS011;8445;51.270;9.434;2022-08-11T08:51:43;6.30;;;2.30;;
16662;SDS011;8445;51.270;9.434;2022-08-11T08:54:20;5.68;;;2.53;;
16662;SDS011;8445;51.270;9.434;2022-08-11T08:56:58;11.15;;;2.40;;
16662;SDS011;8445;51.270;9.434;2022-08-11T08:59:29;5.22;;;2.33;;
16662;SDS011;8445;51.270;9.434;2022-08-11T09:02:02;5.28;;;2.50;;
16662;SDS011;8445;51.270;9.434;2022-08-11T09:04:34;7.63;;;2.45;;
16662;SDS011;8445;51.270;9.434;2022-08-11T09:07:06;4.45;;;2.60;;
16662;SDS011;8445;51.270;9.434;2022-08-11T09:09:46;3.53;;;2.63;;
16662;SDS011;8445;51.270;9.434;2022-08-11T09:12:15;5.43;;;2.67;;
16662;SDS011;8445;51.270;9.434;2022-08-11T09:14:45;4.05;;;2.47;;
16662;SDS011;8445;51.270;9.434;2022-08-11T09:20:18;3.95;;;2.67;;
16662;SDS011;8445;51.270;9.434;2022-08-11T09:22:56;3.92;;;2.45;;
16662;SDS011;8445;51.270;9.434;2022-08-11T09:25:47;4.35;;;2.60;;
16662;SDS011;8445;51.270;9.434;2022-08-11T09:28:38;5.10;;;2.58;;
16662;SDS011;8445;51.270;9.434;2022-08-11T09:31:07;5.65;;;2.83;;
16662;SDS011;8445;51.270;9.434;2022-08-11T09:33:36;5.35;;;2.85;;
16662;SDS011;8445;51.270;9.434;2022-08-11T09:36:03;4.65;;;2.78;;
16662;SDS011;8445;51.270;9.434;2022-08-11T09:38:50;7.80;;;2.67;;
16662;SDS011;8445;51.270;9.434;2022-08-11T09:41:36;3.40;;;2.42;;
16662;SDS011;8445;51.270;9.434;2022-08-11T09:44:04;5.45;;;2.58;;
16662;SDS011;8445;51.270;9.434;2022-08-11T09:46:52;5.63;;;2.72;;
16662;SDS011;8445;51.270;9.434;2022-08-11T09:49:24;6.00;;;2.50;;
16662;SDS011;8445;51.270;9.434;2022-08-11T09:51:53;3.90;;;2.78;;
16662;SDS011;8445;51.270;9.434;2022-08-11T09:54:21;6.75;;;2.85;;
16662;SDS011;8445;51.270;9.434;2022-08-11T09:56:52;10.15;;;2.83;;
16662;SDS011;8445;51.270;9.434;2022-08-11T09:59:37;3.83;;;2.13;;
16662;SDS011;8445;51.270;9.434;2022-08-11T10:02:05;3.28;;;2.72;;
16662;SDS011;8445;51.270;9.434;2022-08-11T10:04:37;2.50;;;2.30;;
16662;SDS011;8445;51.270;9.434;2022-08-11T10:07:09;8.18;;;2.83;;
16662;SDS011;8445;51.270;9.434;2022-08-11T10:09:48;2.55;;;2.35;;
16662;SDS011;8445;51.270;9.434;2022-08-11T10:12:26;3.50;;;2.47;;
16662;SDS011;8445;51.270;9.434;2022-08-11T10:15:00;3.50;;;3.20;;
16662;SDS011;8445;51.270;9.434;2022-08-11T10:17:54;4.75;;;2.20;;
16662;SDS011;8445;51.270;9.434;2022-08-11T10:20:46;4.47;;;2.58;;
16662;SDS011;8445;51.270;9.434;2022-08-11T10:23:15;2.90;;;2.20;;
16662;SDS011;8445;51.270;9.434;2022-08-11T10:26:02;5.40;;;2.83;;
16662;SDS011;8445;51.270;9.434;2022-08-11T10:28:49;4.45;;;2.38;;
16662;SDS011;8445;51.270;9.434;2022-08-11T10:31:18;4.32;;;2.50;;
16662;SDS011;8445;51.270;9.434;2022-08-11T10:34:05;4.63;;;2.25;;
16662;SDS011;8445;51.270;9.434;2022-08-11T10:36:34;2.80;;;2.60;;
16662;SDS011;8445;51.270;9.434;2022-08-11T10:39:08;4.90;;;2.78;;
16662;SDS011;8445;51.270;9.434;2022-08-11T10:41:41;7.88;;;2.85;;
16662;SDS011;8445;51.270;9.434;2022-08-11T10:44:34;7.68;;;2.53;;
16662;SDS011;8445;51.270;9.434;2022-08-11T10:47:05;5.43;;;2.45;;
16662;SDS011;8445;51.270;9.434;2022-08-11T10:49:53;2.75;;;2.38;;
16662;SDS011;8445;51.270;9.434;2022-08-11T10:52:39;2.70;;;2.05;;
16662;SDS011;8445;51.270;9.434;2022-08-11T10:55:25;2.78;;;2.30;;
16662;SDS011;8445;51.270;9.434;2022-08-11T10:58:11;5.25;;;2.95;;
16662;SDS011;8445;51.270;9.434;2022-08-11T11:00:56;6.97;;;2.60;;
16662;SDS011;8445;51.270;9.434;2022-08-11T11:03:25;3.47;;;2.72;;
16662;SDS011;8445;51.270;9.434;2022-08-11T11:06:11;3.15;;;2.20;;
16662;SDS011;8445;51.270;9.434;2022-08-11T11:09:15;4.43;;;2.42;;
16662;SDS011;8445;51.270;9.434;2022-08-11T11:12:01;5.50;;;2.63;;
16662;SDS011;8445;51.270;9.434;2022-08-11T11:14:52;5.13;;;2.55;;
16662;SDS011;8445;51.270;9.434;2022-08-11T11:17:42;4.03;;;2.65;;
16662;SDS011;8445;51.270;9.434;2022-08-11T11:20:26;4.60;;;2.78;;
16662;SDS011;8445;51.270;9.434;2022-08-11T11:35:03;8.73;;;2.60;;
16662;SDS011;8445;51.270;9.434;2022-08-11T11:37:55;2.75;;;2.50;;
16662;SDS011;8445;51.270;9.434;2022-08-11T11:40:23;3.60;;;2.63;;
16662;SDS011;8445;51.270;9.434;2022-08-11T11:42:50;6.30;;;2.70;;
16662;SDS011;8445;51.270;9.434;2022-08-11T11:45:21;2.88;;;2.55;;
16662;SDS011;8445;51.270;9.434;2022-08-11T11:47:52;4.90;;;2.40;;
16662;SDS011;8445;51.270;9.434;2022-08-11T11:50:23;3.00;;;2.67;;
16662;SDS011;8445;51.270;9.434;2022-08-11T11:52:52;5.22;;;2.55;;
16662;SDS011;8445;51.270;9.434;2022-08-11T11:55:20;4.18;;;2.50;;
16662;SDS011;8445;51.270;9.434;2022-08-11T11:57:50;5.85;;;2.40;;
16662;SDS011;8445;51.270;9.434;2022-08-11T12:00:37;4.47;;;2.50;;
16662;SDS011;8445;51.270;9.434;2022-08-11T12:03:24;4.72;;;2.28;;
16662;SDS011;8445;51.270;9.434;2022-08-11T12:05:51;8.50;;;2.80;;
16662;SDS011;8445;51.270;9.434;2022-08-11T12:08:18;4.30;;;2.70;;
16662;SDS011;8445;51.270;9.434;2022-08-11T12:10:52;4.90;;;2.22;;
16662;SDS011;8445;51.270;9.434;2022-08-11T12:13:44;5.93;;;3.05;;
16662;SDS011;8445;51.270;9.434;2022-08-11T12:16:14;8.23;;;2.38;;
16662;SDS011;8445;51.270;9.434;2022-08-11T12:18:44;4.45;;;3.33;;
16662;SDS011;8445;51.270;9.434;2022-08-11T12:21:18;6.40;;;2.90;;
16662;SDS011;8445;51.270;9.434;2022-08-11T12:23:47;7.32;;;2.83;;
16662;SDS011;8445;51.270;9.434;2022-08-11T12:26:41;6.90;;;2.50;;
16662;SDS011;8445;51.270;9.434;2022-08-11T12:29:51;5.43;;;2.40;;
16662;SDS011;8445;51.270;9.434;2022-08-11T12:32:28;7.97;;;2.30;;
16662;SDS011;8445;51.270;9.434;2022-08-11T12:35:01;3.42;;;2.35;;
16662;SDS011;8445;51.270;9.434;2022-08-11T12:37:38;3.35;;;2.20;;
16662;SDS011;8445;51.270;9.434;2022-08-11T12:40:10;3.80;;;2.40;;
16662;SDS011;8445;51.270;9.434;2022-08-11T12:43:01;5.07;;;2.72;;
16662;SDS011;8445;51.270;9.434;2022-08-11T12:45:53;4.35;;;2.70;;
16662;SDS011;8445;51.270;9.434;2022-08-11T12:48:27;4.43;;;2.38;;
16662;SDS011;8445;51.270;9.434;2022-08-11T12:51:20;4.45;;;2.45;;
16662;SDS011;8445;51.270;9.434;2022-08-11T12:54:19;4.03;;;3.08;;
16662;SDS011;8445;51.270;9.434;2022-08-11T12:57:15;3.92;;;2.25;;
16662;SDS011;8445;51.270;9.434;2022-08-11T13:00:22;3.47;;;2.58;;
16662;SDS011;8445;51.270;9.434;2022-08-11T13:03:12;5.22;;;2.60;;
16662;SDS011;8445;51.270;9.434;2022-08-11T13:05:58;4.65;;;2.67;;
16662;SDS011;8445;51.270;9.434;2022-08-11T13:08:28;2.42;;;2.10;;
16662;SDS011;8445;51.270;9.434;2022-08-11T13:11:04;3.33;;;2.10;;
16662;SDS011;8445;51.270;9.434;2022-08-11T13:13:50;4.00;;;2.40;;
16662;SDS011;8445;51.270;9.434;2022-08-11T13:16:30;4.18;;;2.70;;
16662;SDS011;8445;51.270;9.434;2022-08-11T13:19:18;3.50;;;2.50;;
16662;SDS011;8445;51.270;9.434;2022-08-11T13:21:50;5.97;;;2.40;;
16662;SDS011;8445;51.270;9.434;2022-08-11T13:24:20;5.20;;;3.10;;
16662;SDS011;8445;51.270;9.434;2022-08-11T13:26:48;6.68;;;2.55;;
16662;SDS011;8445;51.270;9.434;2022-08-11T13:31:49;5.07;;;2.72;;
16662;SDS011;8445;51.270;9.434;2022-08-11T13:34:20;5.25;;;4.75;;
16662;SDS011;8445;51.270;9.434;2022-08-11T13:36:51;5.90;;;3.55;;
16662;SDS011;8445;51.270;9.434;2022-08-11T13:39:21;4.82;;;2.50;;
16662;SDS011;8445;51.270;9.434;2022-08-11T13:41:52;6.68;;;4.53;;
16662;SDS011;8445;51.270;9.434;2022-08-11T13:44:21;3.28;;;2.13;;
16662;SDS011;8445;51.270;9.434;2022-08-11T13:46:56;6.47;;;2.78;;
16662;SDS011;8445;51.270;9.434;2022-08-11T13:49:26;4.57;;;2.88;;
16662;SDS011;8445;51.270;9.434;2022-08-11T13:51:55;5.13;;;2.50;;
16662;SDS011;8445;51.270;9.434;2022-08-11T13:54:26;5.22;;;2.85;;
16662;SDS011;8445;51.270;9.434;2022-08-11T13:56:56;3.35;;;2.35;;
16662;SDS011;8445;51.270;9.434;2022-08-11T13:59:28;5.93;;;2.90;;
16662;SDS011;8445;51.270;9.434;2022-08-11T14:01:59;5.00;;;2.60;;
16662;SDS011;8445;51.270;9.434;2022-08-11T14:04:30;2.65;;;2.33;;
16662;SDS011;8445;51.270;9.434;2022-08-11T14:07:20;7.07;;;2.67;;
16662;SDS011;8445;51.270;9.434;2022-08-11T14:09:58;6.38;;;2.90;;
16662;SDS011;8445;51.270;9.434;2022-08-11T14:12:26;4.68;;;2.55;;
16662;SDS011;8445;51.270;9.434;2022-08-11T14:15:21;5.53;;;2.33;;
16662;SDS011;8445;51.270;9.434;2022-08-11T14:18:06;3.17;;;2.45;;
16662;SDS011;8445;51.270;9.434;2022-08-11T14:20:51;5.22;;;2.63;;
16662;SDS011;8445;51.270;9.434;2022-08-11T14:23:51;2.63;;;2.42;;
16662;SDS011;8445;51.270;9.434;2022-08-11T14:26:25;7.50;;;2.38;;
16662;SDS011;8445;51.270;9.434;2022-08-11T14:29:05;6.45;;;2.60;;
16662;SDS011;8445;51.270;9.434;2022-08-11T14:31:58;6.13;;;2.45;;
16662;SDS011;8445;51.270;9.434;2022-08-11T14:34:29;5.75;;;2.05;;
16662;SDS011;8445;51.270;9.434;2022-08-11T14:37:03;4.05;;;2.50;;
16662;SDS011;8445;51.270;9.434;2022-08-11T14:42:49;3.83;;;2.50;;
16662;SDS011;8445;51.270;9.434;2022-08-11T14:45:34;3.40;;;2.45;;
16662;SDS011;8445;51.270;9.434;2022-08-11T14:48:19;3.40;;;2.40;;
16662;SDS011;8445;51.270;9.434;2022-08-11T14:50:45;4.45;;;2.38;;
16662;SDS011;8445;51.270;9.434;2022-08-11T14:53:11;11.65;;;2.78;;
16662;SDS011;8445;51.270;9.434;2022-08-11T14:55:41;6.80;;;2.63;;
16662;SDS011;8445;51.270;9.434;2022-08-11T14:58:27;9.00;;;2.30;;
16662;SDS011;8445;51.270;9.434;2022-08-11T15:00:56;2.63;;;2.30;;
16662;SDS011;8445;51.270;9.434;2022-08-11T15:03:26;8.15;;;2.42;;
16662;SDS011;8445;51.270;9.434;2022-08-11T15:05:58;5.22;;;2.50;;
16662;SDS011;8445;51.270;9.434;2022-08-11T15:08:32;3.28;;;2.20;;
16662;SDS011;8445;51.270;9.434;2022-08-11T15:11:21;3.22;;;2.08;;
16662;SDS011;8445;51.270;9.434;2022-08-11T15:14:12;2.75;;;2.22;;
16662;SDS011;8445;51.270;9.434;2022-08-11T15:16:59;5.85;;;2.55;;
16662;SDS011;8445;51.270;9.434;2022-08-11T15:19:32;5.25;;;2.67;;
16662;SDS011;8445;51.270;9.434;2022-08-11T15:22:00;2.90;;;2.20;;
16662;SDS011;8445;51.270;9.434;2022-08-11T15:24:45;5.55;;;2.30;;
16662;SDS011;8445;51.270;9.434;2022-08-11T15:27:13;2.58;;;2.28;;
16662;SDS011;8445;51.270;9.434;2022-08-11T15:30:07;3.47;;;2.50;;
16662;SDS011;8445;51.270;9.434;2022-08-11T15:32:52;3.13;;;2.25;;
16662;SDS011;8445;51.270;9.434;2022-08-11T15:35:39;6.45;;;2.30;;
16662;SDS011;8445;51.270;9.434;2022-08-11T15:38:30;8.15;;;2.67;;
16662;SDS011;8445;51.270;9.434;2022-08-11T15:41:00;5.63;;;2.30;;
16662;SDS011;8445;51.270;9.434;2022-08-11T15:43:51;7.53;;;2.80;;
16662;SDS011;8445;51.270;9.434;2022-08-11T15:46:40;9.93;;;2.28;;
16662;SDS011;8445;51.270;9.434;2022-08-11T15:52:02;7.13;;;2.53;;
16662;SDS011;8445;51.270;9.434;2022-08-11T15:54:37;3.80;;;2.05;;
16662;SDS011;8445;51.270;9.434;2022-08-11T15:57:07;5.20;;;2.67;;
16662;SDS011;8445;51.270;9.434;2022-08-11T15:59:53;5.45;;;2.50;;
16662;SDS011;8445;51.270;9.434;2022-08-11T16:02:39;14.57;;;2.22;;
16662;SDS011;8445;51.270;9.434;2022-08-11T16:05:14;4.50;;;2.28;;
16662;SDS011;8445;51.270;9.434;2022-08-11T16:07:42;4.43;;;2.38;;
16662;SDS011;8445;51.270;9.434;2022-08-11T16:10:16;6.55;;;2.30;;
16662;SDS011;8445;51.270;9.434;2022-08-11T16:15:39;4.65;;;2.40;;
16662;SDS011;8445;51.270;9.434;2022-08-11T16:18:33;4.15;;;2.08;;
16662;SDS011;8445;51.270;9.434;2022-08-11T16:24:09;3.97;;;2.40;;
16662;SDS011;8445;51.270;9.434;2022-08-11T16:26:39;4.40;;;4.00;;
16662;SDS011;8445;51.270;9.434;2022-08-11T16:29:09;2.20;;;2.00;;
16662;SDS011;8445;51.270;9.434;2022-08-11T16:31:36;3.75;;;2.13;;
16662;SDS011;8445;51.270;9.434;2022-08-11T16:34:06;5.13;;;2.83;;
16662;SDS011;8445;51.270;9.434;2022-08-11T16:36:56;4.40;;;2.20;;
16662;SDS011;8445;51.270;9.434;2022-08-11T16:39:42;4.65;;;1.90;;
16662;SDS011;8445;51.270;9.434;2022-08-11T16:42:10;2.83;;;1.95;;
16662;SDS011;8445;51.270;9.434;2022-08-11T16:44:55;2.45;;;2.13;;
16662;SDS011;8445;51.270;9.434;2022-08-11T16:47:43;4.68;;;2.17;;
16662;SDS011;8445;51.270;9.434;2022-08-11T16:50:12;5.88;;;3.00;;
16662;SDS011;8445;51.270;9.434;2022-08-11T16:52:39;2.60;;;2.10;;
16662;SDS011;8445;51.270;9.434;2022-08-11T16:55:07;4.68;;;2.50;;
16662;SDS011;8445;51.270;9.434;2022-08-11T16:57:34;2.92;;;2.15;;
16662;SDS011;8445;51.270;9.434;2022-08-11T17:00:21;2.40;;;2.10;;
16662;SDS011;8445;51.270;9.434;2022-08-11T17:02:48;2.28;;;2.05;;
16662;SDS011;8445;51.270;9.434;2022-08-11T17:05:36;3.60;;;2.10;;
16662;SDS011;8445;51.270;9.434;2022-08-11T17:08:29;5.80;;;2.30;;
16662;SDS011;8445;51.270;9.434;2022-08-11T17:11:29;3.78;;;2.10;;
16662;SDS011;8445;51.270;9.434;2022-08-11T17:14:35;8.45;;;2.45;;
16662;SDS011;8445;51.270;9.434;2022-08-11T17:17:28;2.75;;;2.05;;
16662;SDS011;8445;51.270;9.434;2022-08-11T17:20:00;3.35;;;2.55;;
16662;SDS011;8445;51.270;9.434;2022-08-11T17:22:35;5.18;;;2.20;;
16662;SDS011;8445;51.270;9.434;2022-08-11T17:25:21;2.72;;;2.00;;
16662;SDS011;8445;51.270;9.434;2022-08-11T17:27:52;6.18;;;2.10;;
16662;SDS011;8445;51.270;9.434;2022-08-11T17:30:20;3.70;;;2.17;;
16662;SDS011;8445;51.270;9.434;2022-08-11T17:33:07;2.78;;;2.08;;
16662;SDS011;8445;51.270;9.434;2022-08-11T17:35:55;4.13;;;2.53;;
16662;SDS011;8445;51.270;9.434;2022-08-11T17:38:23;6.50;;;2.40;;
16662;SDS011;8445;51.270;9.434;2022-08-11T17:40:52;5.60;;;2.65;;
16662;SDS011;8445;51.270;9.434;2022-08-11T17:43:41;5.88;;;2.95;;
16662;SDS011;8445;51.270;9.434;2022-08-11T17:46:28;5.15;;;2.60;;
16662;SDS011;8445;51.270;9.434;2022-08-11T17:49:22;7.00;;;3.28;;
16662;SDS011;8445;51.270;9.434;2022-08-11T17:51:50;6.38;;;3.05;;
16662;SDS011;8445;51.270;9.434;2022-08-11T17:54:36;4.18;;;3.30;;
16662;SDS011;8445;51.270;9.434;2022-08-11T17:57:24;6.93;;;2.83;;
16662;SDS011;8445;51.270;9.434;2022-08-11T18:00:11;4.60;;;2.78;;
16662;SDS011;8445;51.270;9.434;2022-08-11T18:02:39;5.22;;;2.95;;
16662;SDS011;8445;51.270;9.434;2022-08-11T18:05:29;6.00;;;2.45;;
16662;SDS011;8445;51.270;9.434;2022-08-11T18:07:59;2.40;;;2.20;;
16662;SDS011;8445;51.270;9.434;2022-08-11T18:10:50;5.50;;;2.55;;
16662;SDS011;8445;51.270;9.434;2022-08-11T18:13:38;4.15;;;2.50;;
16662;SDS011;8445;51.270;9.434;2022-08-11T18:16:28;5.18;;;2.60;;
16662;SDS011;8445;51.270;9.434;2022-08-11T18:19:13;5.97;;;2.33;;
16662;SDS011;8445;51.270;9.434;2022-08-11T18:22:08;3.30;;;1.98;;
16662;SDS011;8445;51.270;9.434;2022-08-11T18:25:07;5.53;;;2.10;;
16662;SDS011;8445;51.270;9.434;2022-08-11T18:28:15;4.72;;;2.50;;
16662;SDS011;8445;51.270;9.434;2022-08-11T18:31:14;5.57;;;2.42;;
16662;SDS011;8445;51.270;9.434;2022-08-11T18:34:03;3.17;;;2.78;;
16662;SDS011;8445;51.270;9.434;2022-08-11T18:37:03;8.50;;;2.83;;
16662;SDS011;8445;51.270;9.434;2022-08-11T18:40:01;8.35;;;2.47;;
16662;SDS011;8445;51.270;9.434;2022-08-11T18:43:01;6.40;;;2.58;;
16662;SDS011;8445;51.270;9.434;2022-08-11T18:46:03;7.85;;;2.63;;
16662;SDS011;8445;51.270;9.434;2022-08-11T18:48:54;4.65;;;2.90;;
16662;SDS011;8445;51.270;9.434;2022-08-11T18:51:50;5.70;;;2.72;;
16662;SDS011;8445;51.270;9.434;2022-08-11T18:54:39;9.23;;;5.57;;
16662;SDS011;8445;51.270;9.434;2022-08-11T18:57:31;5.43;;;3.67;;
16662;SDS011;8445;51.270;9.434;2022-08-11T19:00:24;5.72;;;2.90;;
16662;SDS011;8445;51.270;9.434;2022-08-11T19:03:11;4.50;;;2.63;;
16662;SDS011;8445;51.270;9.434;2022-08-11T19:06:01;3.35;;;2.65;;
16662;SDS011;8445;51.270;9.434;2022-08-11T19:08:56;4.60;;;2.88;;
16662;SDS011;8445;51.270;9.434;2022-08-11T19:11:45;9.05;;;3.80;;
16662;SDS011;8445;51.270;9.434;2022-08-11T19:14:32;4.82;;;3.40;;
16662;SDS011;8445;51.270;9.434;2022-08-11T19:17:20;3.85;;;3.22;;
16662;SDS011;8445;51.270;9.434;2022-08-11T19:20:18;8.63;;;3.30;;
16662;SDS011;8445;51.270;9.434;2022-08-11T19:23:07;5.43;;;3.17;;
16662;SDS011;8445;51.270;9.434;2022-08-11T19:25:57;9.75;;;3.17;;
16662;SDS011;8445;51.270;9.434;2022-08-11T19:28:45;4.50;;;2.85;;
16662;SDS011;8445;51.270;9.434;2022-08-11T19:31:32;3.55;;;2.50;;
16662;SDS011;8445;51.270;9.434;2022-08-11T19:34:21;7.80;;;3.50;;
16662;SDS011;8445;51.270;9.434;2022-08-11T19:37:07;6.18;;;3.25;;
16662;SDS011;8445;51.270;9.434;2022-08-11T19:39:59;4.40;;;3.05;;
16662;SDS011;8445;51.270;9.434;2022-08-11T19:43:06;3.47;;;2.83;;
16662;SDS011;8445;51.270;9.434;2022-08-11T19:45:54;5.82;;;3.67;;
16662;SDS011;8445;51.270;9.434;2022-08-11T19:48:44;7.63;;;2.88;;
16662;SDS011;8445;51.270;9.434;2022-08-11T19:51:33;3.70;;;2.60;;
16662;SDS011;8445;51.270;9.434;2022-08-11T19:54:22;3.38;;;2.78;;
16662;SDS011;8445;51.270;9.434;2022-08-11T19:57:14;6.70;;;2.95;;
16662;SDS011;8445;51.270;9.434;2022-08-11T20:00:04;3.63;;;2.30;;
16662;SDS011;8445;51.270;9.434;2022-08-11T20:03:00;2.95;;;2.55;;
16662;SDS011;8445;51.270;9.434;2022-08-11T20:05:47;8.85;;;2.90;;
16662;SDS011;8445;51.270;9.434;2022-08-11T20:08:33;7.05;;;3.55;;
16662;SDS011;8445;51.270;9.434;2022-08-11T20:11:22;8.30;;;3.45;;